Alexandria, Tennessee
Current Conditions -  °F | °C
As of 4:53 AM on Friday 24 Oct 2014 (Local Time) from KBNA Reporting Station
Broken Clouds Broken Clouds  
Wind Chill: 50°   Ceiling: 15000
Heat Index: 50°   Visibility: 10mi
Dew Point: 45°   Wind: 5mph
Humidity: 83%   Direction: 320°NW
Pressure: 30.12"   Gusts: NA
Location:  36.08°N, 86.03°W
Report Text: KBNA 240953Z 32004KT 10SM BKN150 10/07 A3012 RMK AO2 SLP197 T01000072
Loading
Personal Weather Stations






























Interactive Weather Map
Tropical Storm Tracking
New forecast layout! Learn more

10-Day Weather Forecast

Advertisements
Track Severe Weather on mobile